• Join FlightAware (Why Join?)
  • Login
  • US Flag 
01:03PM EDT


 

Airport Tracker/Info


-or-


 

Live Flight TrackerFlight Track Log ✈ N509QS ✈ 10-Jul-2013 ✈ KVNY - CYVR

Flight Track Log - Related Links

Times and Time Zones

All times are in EDT time to prevent confusion due to time zone crossing. See the N509QS flight status page for this flight to view local times or setup timezone preferences in your user account.

Time Position Orientation Groundspeed Altitude Reporting Facility
EDT Latitude Longitude Course Direction KTS MPH feet Rate Location/Type
09:29PM 34.1764 -118.4894 348° North 176 203 1,700  Level Los Angeles Center
09:30PM 34.1436 -118.5428 233° Southwest 226 260 5,100 3,540 Climbing Los Angeles Center
09:31PM 34.2147 -118.6025 325° Northwest 279 321 9,100 3,720 Climbing Los Angeles Center
09:32PM 34.2931 -118.6372 340° North 297 342 12,800 2,820 Climbing Los Angeles Center
09:33PM 34.3883 -118.6769 341° North 378 435 15,000 2,100 Climbing Los Angeles Center
09:34PM 35.2065 -118.7412 348° North  Level Estimated
09:34PM 34.4925 -118.7236 340° North 402 463 17,200  Level Los Angeles Center
09:35PM 34.6056 -118.7717 341° North 432 497 19,200 1,920 Climbing Los Angeles Center
09:36PM 34.7219 -118.8278 338° Northwest 449 517 21,200 1,980 Climbing Los Angeles Center
09:37PM 34.8753 -118.8758 346° North 479 551 23,400 1,860 Climbing Los Angeles Center
09:38PM 34.9994 -118.9031 350° North 486 559 25,100 1,500 Climbing Los Angeles Center
09:39PM 35.1367 -118.9325 350° North 499 574 26,500 1,440 Climbing Los Angeles Center
09:40PM 35.2778 -118.9633 350° North 511 588 28,100 1,560 Climbing Los Angeles Center
09:41PM 35.4522 -119.0003 350° North 525 604 29,800 1,560 Climbing Los Angeles Center
09:42PM 35.5953 -119.0314 350° North 524 603 31,300 1,440 Climbing Los Angeles Center
09:43PM 35.7350 -119.0619 350° North 516 594 32,800 1,680 Climbing Los Angeles Center
09:44PM 35.8753 -119.0925 350° North 514 592 34,800 2,220 Climbing Los Angeles Center
09:45PM 36.0139 -119.1258 349° North 510 587 37,400 2,520 Climbing Los Angeles Center
09:46PM 36.0933 -119.1411 351° North 508 585 38,800 2,220 Climbing Oakland Center
09:47PM 36.2328 -119.1722 350° North 508 585 40,900 1,860 Climbing Oakland Center
09:48PM 36.3675 -119.2025 350° North 500 575 42,700 1,020 Climbing Oakland Center
09:49PM 36.5008 -119.2314 350° North 491 565 43,000 120 Climbing Oakland Center
09:50PM 36.6364 -119.2608 350° North 494 568 43,000  Level Oakland Center
09:51PM 36.7667 -119.2911 349° North 482 555 43,000  Level Oakland Center
09:52PM 36.9281 -119.3261 350° North 491 565 43,000  Level Oakland Center
09:53PM 37.0656 -119.3567 350° North 501 577 43,000  Level Oakland Center
09:54PM 37.2017 -119.3875 350° North 497 572 43,000  Level Oakland Center
09:55PM 37.3367 -119.4194 349° North 495 570 43,000  Level Oakland Center
09:56PM 37.4722 -119.4508 350° North 495 570 43,000  Level Oakland Center
09:57PM 37.6114 -119.4817 350° North 497 572 43,000  Level Oakland Center
09:58PM 37.7461 -119.5136 349° North 495 570 43,000  Level Oakland Center
09:59PM 37.8833 -119.5447 350° North 499 574 43,000  Level Oakland Center
10:00PM 38.0197 -119.5767 350° North 501 577 43,000  Level Oakland Center
10:01PM 38.1558 -119.6092 349° North 499 574 43,000  Level Oakland Center
10:02PM 38.2911 -119.6414 349° North 497 572 43,000  Level Oakland Center
10:03PM 38.4378 -119.6744 350° North 499 574 43,000  Level Oakland Center
10:04PM 38.5747 -119.7075 349° North 499 574 43,000  Level Oakland Center
10:05PM 38.7125 -119.7397 350° North 500 575 43,000  Level Oakland Center
10:06PM 38.8789 -119.7786 350° North 504 580 43,000  Level Oakland Center
10:07PM 39.0192 -119.8136 349° North 508 585 43,000  Level Oakland Center
10:08PM 39.1592 -119.8478 349° North 510 587 43,000  Level Oakland Center
10:09PM 39.3008 -119.8814 350° North 513 590 43,000  Level Oakland Center
10:10PM 39.4406 -119.9144 350° North 510 587 43,000  Level Oakland Center
10:11PM 39.5800 -119.9492 349° North 507 583 43,000  Level Oakland Center
10:12PM 39.7186 -119.9831 349° North 505 581 43,000  Level Oakland Center
10:13PM 39.8558 -120.0178 349° North 502 578 43,000  Level Oakland Center
10:14PM 39.9956 -120.0511 350° North 506 582 43,000  Level Oakland Center
10:15PM 40.1350 -120.0844 350° North 509 586 43,000  Level Oakland Center
10:16PM 40.2731 -120.1203 349° North 506 582 43,000  Level Oakland Center
10:17PM 40.4119 -120.1550 349° North 506 582 43,000  Level Oakland Center
10:18PM 40.5536 -120.1892 350° North 503 579 43,000  Level Oakland Center
10:19PM 40.6950 -120.2242 349° North 512 589 43,000  Level Oakland Center
10:20PM 40.8317 -120.2625 348° North 506 582 43,000  Level Oakland Center
10:21PM 40.9981 -120.3017 350° North 503 579 43,000  Level Oakland Center
10:22PM 41.1339 -120.3392 348° North 502 578 43,000  Level Oakland Center
10:23PM 41.2708 -120.3767 348° North 502 578 43,000  Level Oakland Center
10:24PM 41.4153 -120.4072 351° North 516 594 43,000  Level Oakland Center
10:25PM 41.5539 -120.4414 350° North 515 593 43,000  Level Oakland Center
10:26PM 41.6892 -120.4794 348° North 506 582 43,000  Level Oakland Center
10:27PM 41.8247 -120.5147 349° North 500 575 43,000  Level Oakland Center
10:29PM 41.9586 -120.5500 349° North 498 573 43,000  Level Oakland Center
10:30PM 42.1481 -120.5986 349° North 495 570 43,000  Level Seattle Center
10:31PM 42.2833 -120.6353 349° North 497 572 43,000  Level Seattle Center
10:32PM 42.4183 -120.6706 349° North 496 571 43,000  Level Seattle Center
10:33PM 42.5825 -120.7133 349° North 503 579 43,000  Level Seattle Center
10:34PM 42.7203 -120.7519 348° North 509 586 43,000  Level Seattle Center
10:35PM 42.8539 -120.7856 350° North 497 572 43,000  Level Seattle Center
10:36PM 42.9919 -120.8228 349° North 503 579 43,000  Level Seattle Center
10:37PM 43.1292 -120.8614 348° North 503 579 43,000  Level Seattle Center
10:38PM 43.2636 -120.8981 349° North 496 571 43,000  Level Seattle Center
10:39PM 43.4003 -120.9342 349° North 502 578 43,000  Level Seattle Center
10:40PM 43.5408 -120.9714 349° North 513 590 43,000  Level Seattle Center
10:41PM 43.6903 -121.0128 349° North 501 577 43,000  Level Seattle Center
10:42PM 43.8261 -121.0500 349° North 498 573 43,000  Level Seattle Center
10:43PM 43.9636 -121.0889 348° North 502 578 43,000  Level Seattle Center
10:44PM 44.1011 -121.1294 348° North 504 580 43,000  Level Seattle Center
10:45PM 44.2422 -121.1686 349° North 514 592 43,000  Level Seattle Center
10:46PM 44.3869 -121.2103 348° North 517 595 43,000  Level Seattle Center
10:47PM 44.5239 -121.2478 349° North 504 580 43,000  Level Seattle Center
10:48PM 44.6606 -121.2864 349° North 509 586 43,000  Level Seattle Center
10:49PM 44.7994 -121.3275 348° North 510 587 43,000  Level Seattle Center
10:50PM 44.9397 -121.3664 349° North 512 589 43,000  Level Seattle Center
10:51PM 45.0792 -121.4075 348° North 510 587 43,000  Level Seattle Center
10:52PM 45.2189 -121.4469 349° North 510 587 43,000  Level Seattle Center
10:53PM 45.3597 -121.4889 348° North 515 593 43,000  Level Seattle Center
10:54PM 45.5019 -121.5303 348° North 514 592 43,000  Level Seattle Center
10:55PM 45.6394 -121.5725 348° North 514 592 43,000  Level Seattle Center
10:56PM 45.8058 -121.6206 349° North 508 585 43,000  Level Seattle Center
10:57PM 45.9444 -121.6617 348° North 507 583 43,000  Level Seattle Center
10:58PM 46.0850 -121.7033 348° North 513 590 43,000  Level Seattle Center
10:59PM 46.2264 -121.7461 348° North 518 596 43,000  Level Seattle Center
11:00PM 46.3656 -121.7867 349° North 516 594 43,000  Level Seattle Center
11:01PM 46.5050 -121.8314 348° North 516 594 43,000  Level Seattle Center
11:02PM 46.6411 -121.8725 348° North 510 587 43,000  Level Seattle Center
11:03PM 46.7792 -121.9153 348° North 510 587 43,000 -300 Level Seattle Center
11:04PM 46.9175 -121.9569 348° North 513 590 42,400 -1,440 Descending Seattle Center
11:05PM 47.0547 -122.0014 348° North 511 588 40,200 -2,580 Descending Seattle Center
11:06PM 47.2189 -122.0528 348° North 510 587 37,300 -2,700 Descending Seattle Center
11:07PM 47.3542 -122.0967 348° North 505 581 34,800 -2,460 Descending Seattle Center
11:08PM 47.4847 -122.1375 348° North 491 565 32,400 -2,400 Descending Seattle Center
11:09PM 47.6153 -122.1789 348° North 491 565 30,000 -2,400 Descending Seattle Center
11:10PM 47.7469 -122.2206 348° North 500 575 27,600 -2,400 Descending Seattle Center
11:11PM 47.8767 -122.2633 348° North 494 568 25,200 -2,580 Descending Seattle Center
11:12PM 48.0275 -122.3086 349° North 471 542 22,400 -2,460 Descending Seattle Center
11:13PM 48.1483 -122.3439 349° North 453 521 20,200 -2,220 Descending Seattle Center
11:14PM 48.2653 -122.3792 349° North 439 505 18,000 -2,160 Descending Seattle Center
11:16PM 48.3806 -122.4114 349° North 424 488 15,900 -1,860 Descending Seattle Center
11:17PM 48.4894 -122.4431 349° North 407 468 14,300 -1,380 Descending Seattle Center
11:18PM 48.5969 -122.4750 349° North 400 460 13,200 -1,200 Descending Seattle Center
11:18PM 48.6667 -122.4833 355° North 360 414 12,200 -720 Descending Vancouver Center
11:19PM 48.7333 -122.5833 315° West 330 380 12,000 -120 Descending Vancouver Center
11:20PM 48.8000 -122.6833 315° West 320 368 12,000 -480 Level Vancouver Center
11:21PM 48.8500 -122.7833 307° West 320 368 11,100 -540 Descending Vancouver Center
11:22PM 48.9167 -122.8833 315° West 320 368 11,000 -60 Descending Vancouver Center
11:23PM 48.9667 -122.9833 307° West 320 368 11,000 -180 Level Vancouver Center
11:24PM 49.0333 -123.0833 315° West 320 368 10,700 -660 Descending Vancouver Center
11:25PM 49.0667 -123.1833 297° West 290 334 9,700 -900 Descending Vancouver Center
11:26PM 49.0833 -123.2833 284° West 240 276 8,900 -1,200 Descending Vancouver Center
11:27PM 49.1000 -123.3667 287° West 210 242 7,400 -1,620 Descending Vancouver Center
11:28PM 49.1333 -123.4500 301° West 220 253 5,700 -1,620 Descending Vancouver Center
11:29PM 49.1833 -123.5000 327° Northwest 220 253 4,200 -1,440 Descending Vancouver Center
11:30PM 49.2000 -123.4167 73° East 200 230 2,900 -1,200 Descending Vancouver Center
11:31PM 49.1833 -123.3333 107° East 180 207 1,900 -900 Descending Vancouver Center
11:32PM 49.1833 -123.2833 90° East 160 184 1,100 -720 Descending Vancouver Center
11:33PM 49.1667 -123.2333 117° Southeast 110 127 500 -600 Descending Vancouver Center